Home > Products > Valid Products > TAF

000
FTUS43 KMPX 261204 CCB
TAFSTC
TAF COR
KSTC 261204Z 2612/2712 19005KT P6SM BKN250
      TEMPO 2612/2613 2SM BR SCT002
     FM261430 26007KT P6SM SKC
     FM270000 VRB03KT P6SM SCT100 BKN250=



000
FTUS43 KMPX 261156 CCA
TAFSTC
TAF COR
KSTC 261156Z 2612/2712 19005KT P6SM BKN250
      TEMPO 2612/2613 1/4SM FG VV002
     FM261430 26007KT P6SM SKC
     FM270000 VRB03KT P6SM SCT100 BKN250=



000
FTUS43 KMPX 260905 AAB
TAFMSP
TAF AMD
KMSP 260905Z 2609/2712 14004KT 4SM -SHRA BR SCT025 BKN070
     FM261000 17006KT P6SM BKN250
     FM261400 24008KT P6SM SCT250
     FM270300 16005KT P6SM BKN050 OVC200 PROB30 2706/2710 -TSRA
      BKN020CB=



000
FTUS43 KMPX 260533
TAFAXN
TAF
KAXN 260533Z 2606/2706 19006KT P6SM VCSH BKN080
     FM260800 20006KT P6SM BKN250
     FM261400 24012KT P6SM FEW250
     FM270000 VRB04KT P6SM BKN200=



000
FTUS43 KMPX 260533
TAFRWF
TAF
KRWF 260533Z 2606/2706 27006KT P6SM -SHRA SCT020 BKN030
     FM260700 22005KT P6SM SCT250
     FM261400 29008KT P6SM FEW250
     FM270100 VRB03KT P6SM VCSH BKN050=



000
FTUS43 KMPX 260533
TAFSTC
TAF
KSTC 260533Z 2606/2706 11004KT P6SM -SHRA VCTS SCT050 BKN090CB
     FM260730 14004KT P6SM FEW005 BKN150
     FM261000 16005KT 4SM BR FEW250
     FM261230 23007KT P6SM SKC
     FM270000 VRB03KT P6SM SCT100 BKN250=



000
FTUS43 KMPX 260520
TAFMSP
TAF
KMSP 260520Z 2606/2712 16007KT P6SM SCT250
     FM260730 16005KT 6SM -SHRA BR VCTS SCT020 BKN035CB
     FM261000 19004KT P6SM SCT020 BKN035
     FM261400 24008KT P6SM SCT250
     FM270300 23005KT P6SM BKN050 OVC200 PROB30 2703/2707 -TSRA
      BKN020CB=



000
FTUS43 KMPX 260219 AAA
TAFSTC
TAF AMD
KSTC 260219Z 2602/2624 14007KT P6SM BKN050
      TEMPO 2602/2606 BKN008
     FM260600 16003KT P6SM BKN050
      TEMPO 2608/2612 4SM BR BKN012
     FM261200 23007KT P6SM SCT250=



000
FTUS43 KMPX 251334 AAA
TAFMSP
TAF AMD
KMSP 251334Z 2514/2618 13009KT P6SM VCSH SCT040 OVC100
     FM251500 14011G17KT 6SM -TSRA BR SCT020 OVC050CB
      TEMPO 2515/2516 22015G25KT 3SM -TSRA
     FM251700 13014G21KT P6SM -SHRA VCTS OVC050CB
     FM251900 12012KT P6SM VCSH BKN040 OVC100
     FM252200 13009KT P6SM SCT050 BKN250
     FM261000 17004KT 5SM BR SCT250
     FM261300 21008KT P6SM SCT250=



000
FTUS43 KMPX 251314 AAA
TAFAXN
TAF AMD
KAXN 251314Z 2513/2612 10010KT P6SM BKN250
     FM251430 12011G17KT 6SM -TSRA BR SCT020 OVC050CB
      TEMPO 2515/2516 22015G25KT 3SM -TSRA
     FM251700 13014G21KT P6SM VCSH OVC050
     FM252200 15013G20KT P6SM BKN050 OVC100
     FM260300 15006KT P6SM SCT250
     FM260800 20006KT P6SM FEW250=



000
FTUS43 KMPX 251256 AAA
TAFRWF
TAF AMD
KRWF 251256Z 2513/2612 21009KT 6SM -SHRA VCTS OVC050CB
      TEMPO 2513/2514 22015G30KT 3SM -TSRA
     FM251600 14010KT P6SM SCT035 OVC100
     FM260900 21006KT P6SM FEW250=



000
FTUS43 KMPX 251120
TAFAXN
TAF
KAXN 251120Z 2512/2612 10010KT P6SM BKN250
     FM251500 12011G17KT 5SM -TSRA BR SCT020 OVC050CB
     FM251800 13014G21KT P6SM VCSH OVC050
     FM252200 15013G20KT P6SM BKN050 OVC100
     FM260300 15006KT P6SM SCT250
     FM260800 20006KT P6SM FEW250=



000
FTUS43 KMPX 251120
TAFMSP
TAF
KMSP 251120Z 2512/2618 10008KT P6SM BKN200
     FM251400 11009KT P6SM VCSH SCT040 OVC100
     FM251600 12011KT 5SM -TSRA BR SCT020 OVC050CB
     FM251900 12012KT P6SM VCSH BKN040 OVC100
     FM252200 13009KT P6SM SCT050 BKN250
     FM261000 17004KT 5SM BR SCT250
     FM261300 21008KT P6SM SCT250=



000
FTUS43 KMPX 251120
TAFRWF
TAF
KRWF 251120Z 2512/2612 10009KT 5SM -SHRA VCTS OVC050CB
      TEMPO 2513/2515 -TSRA
     FM251600 14010KT P6SM SCT035 OVC100
     FM260900 21006KT P6SM FEW250=



000
FTUS43 KMPX 251120
TAFEAU
TAF
KEAU 251120Z 2512/2612 06004KT P6SM BKN250
     FM251800 10009KT 5SM -SHRA VCTS SCT020 OVC050CB
     FM252200 12008KT P6SM VCSH OVC025
     FM260100 12007KT 6SM BR OVC020
     FM260700 15003KT 1SM BR OVC007=



000
FTUS43 KMPX 251120
TAFSTC
TAF
KSTC 251120Z 2512/2612 08006KT P6SM BKN200
     FM251600 12009KT 5SM -TSRA SCT025 OVC050CB
     FM251900 13010KT P6SM VCSH OVC040
     FM252200 11005KT P6SM BKN100
     FM260800 VRB03KT 4SM BR SCT250=



000
FTUS43 KMPX 250540
TAFEAU
TAF
KEAU 250540Z 2506/2606 09004KT P6SM BKN150
     FM251800 12009KT 5SM -SHRA VCTS SCT020 OVC050CB
     FM252200 13008KT P6SM OVC040=



000
FTUS43 KMPX 250540
TAFRWF
TAF
KRWF 250540Z 2506/2606 14009KT P6SM BKN250
     FM251200 11004KT 5SM -SHRA VCTS OVC050CB
      TEMPO 2514/2516 -TSRA
     FM251700 13008KT P6SM OVC035
     FM252000 17007KT P6SM SCT250=



000
FTUS43 KMPX 250540
TAFAXN
TAF
KAXN 250540Z 2506/2606 10010KT P6SM BKN250
     FM251500 12011G17KT 5SM -TSRA BR SCT020 OVC050CB
     FM251800 13014G21KT P6SM VCSH OVC050
     FM252000 15013G20KT P6SM BKN050 OVC100
     FM260300 15006KT P6SM VCSH BKN070=



000
FTUS43 KMPX 250540
TAFSTC
TAF
KSTC 250540Z 2506/2606 08006KT P6SM BKN200
     FM251500 13009KT 5SM -SHRA VCTS SCT025 OVC050CB
     FM251900 13014G20KT P6SM VCSH OVC040
     FM260100 13005KT P6SM BKN100=



000
FTUS43 KMPX 250540
TAFMSP
TAF
KMSP 250540Z 2506/2612 13009KT P6SM SCT250
     FM251200 11010KT P6SM SCT050 BKN200
     FM251600 12011KT 5SM -TSRA BR SCT020 OVC050CB
     FM251900 12012KT P6SM BKN040 OVC100
     FM260300 13007KT P6SM SCT050 BKN250
     FM261000 17004KT 5SM BR SCT250=



000
FTUS43 KMPX 242153 AAA
TAFSTC
TAF AMD
KSTC 242153Z 2422/2518 VRB06KT P6SM BKN050
     FM242300 22007KT P6SM VCSH SCT035 BKN080
      TEMPO 2500/2501 5SM -TSRA BKN040CB OVC080
     FM250100 12003KT P6SM BKN200
     FM251500 13009KT 5SM -SHRA BR OVC050=



000
FTUS43 KMPX 241735
TAFEAU
TAF
KEAU 241735Z 2418/2518 23004KT P6SM SCT030 BKN050
     FM250000 12003KT P6SM BKN150
     FM251600 12010KT 5SM -SHRA OVC050=



000
FTUS43 KMPX 241735
TAFSTC
TAF
KSTC 241735Z 2418/2518 VRB06KT P6SM SCT030
     FM242000 22007KT P6SM VCSH BKN035
     FM250000 12003KT P6SM BKN200
     FM251500 13009KT 5SM -SHRA BR OVC050=



000
FTUS43 KMPX 241735
TAFRWF
TAF
KRWF 241735Z 2418/2518 21007KT P6SM SCT025 BKN250
     FM250000 14005KT P6SM BKN250
     FM251100 11004KT 5SM -SHRA VCTS OVC050CB
     FM251600 13008KT P6SM OVC035=



000
FTUS43 KMPX 241735
TAFAXN
TAF
KAXN 241735Z 2418/2518 21006KT P6SM SCT050 SCT150
     FM250200 11005KT P6SM BKN250
     FM251400 12011G17KT 5SM -SHRA BR OVC050=



000
FTUS43 KMPX 241735
TAFMSP
TAF
KMSP 241735Z 2418/2524 32004KT P6SM FEW040 BKN250
     FM242000 24007KT P6SM SCT040 BKN250
     FM250100 19006KT P6SM SCT250
     FM250500 14004KT P6SM SCT100 BKN250
     FM251400 11010KT 5SM -SHRA BR VCTS SCT025 OVC050CB
     FM251900 13011KT P6SM OVC100=



000
FTUS43 KMPX 241505 AAA
TAFEAU
TAF AMD
KEAU 241505Z 2415/2512 22007KT P6SM BKN019 OVC120
      TEMPO 2415/2418 SCT022 BKN120
     FM241800 23004KT P6SM SCT030 BKN250
     FM250000 12003KT P6SM BKN150=



000
FTUS43 KMPX 241504 AAB
TAFSTC
TAF AMD
KSTC 241504Z 2415/2512 27005KT P6SM BKN010
      TEMPO 2415/2418 SCT015 BKN200
     FM241800 23008KT P6SM SCT030 BKN250
     FM250000 12003KT P6SM BKN200=



000
FTUS43 KMPX 241503 AAA
TAFRWF
TAF AMD
KRWF 241503Z 2415/2512 29005KT P6SM BKN015
      TEMPO 2415/2418 SCT015 BKN250
     FM241800 21007KT P6SM SCT030 BKN250
     FM250000 14005KT P6SM BKN250=



000
FTUS43 KMPX 241501 AAA
TAFMSP
TAF AMD
KMSP 241501Z 2415/2518 25007KT P6SM SCT040 BKN250
     FM250200 11005KT P6SM SCT250=



000
FTUS43 KMPX 241338 AAA
TAFSTC
TAF AMD
KSTC 241338Z 2414/2512 21006KT 3SM BR BKN004
     FM241500 20006KT P6SM SCT200
     FM250000 12003KT P6SM BKN200=



000
FTUS43 KMPX 241143
TAFRWF
TAF
KRWF 241143Z 2412/2512 15003KT 1 1/2SM BR SCT006
      TEMPO 2412/2413 1SM BR BKN003
     FM241330 20007KT P6SM SCT150
     FM250000 14005KT P6SM BKN250=



000
FTUS43 KMPX 241143
TAFSTC
TAF
KSTC 241143Z 2412/2512 17004KT 1/2SM FG VV002
     FM241230 17004KT 4SM BR FEW070
     FM241300 20006KT P6SM SCT200
     FM250000 12003KT P6SM BKN200=



000
FTUS43 KMPX 241143
TAFAXN
TAF
KAXN 241143Z 2412/2512 24004KT P6SM SCT150
     FM241800 21006KT P6SM SCT050 SCT150
     FM250200 11005KT P6SM BKN250=



000
FTUS43 KMPX 241143
TAFMSP
TAF
KMSP 241143Z 2412/2518 22005KT P6SM BKN030 BKN150
     FM241230 23005KT P6SM SCT200
     FM250200 11005KT P6SM SCT250=



000
FTUS43 KMPX 241143
TAFEAU
TAF
KEAU 241143Z 2412/2512 17005KT P6SM VCSH SCT030 OVC080
     FM241700 23004KT P6SM SCT120
     FM250000 12003KT P6SM BKN150=



000
FTUS43 KMPX 240520
TAFAXN
TAF
KAXN 240520Z 2406/2506 VRB03KT P6SM SCT050 SCT120
     FM241800 19006KT P6SM SCT150
     FM250200 13005KT P6SM SCT250=



000
FTUS43 KMPX 240520
TAFEAU
TAF
KEAU 240520Z 2406/2506 19005KT P6SM VCSH SCT040 BKN100
     FM240900 20005KT 4SM BR SCT005 SCT120
      TEMPO 2409/2413 1SM BR BKN005
     FM241400 23004KT P6SM SCT020 SCT120
     FM250000 VRB03KT P6SM SCT180=



000
FTUS43 KMPX 240520
TAFSTC
TAF
KSTC 240520Z 2406/2506 VRB03KT P6SM SCT050 SCT080
      TEMPO 2409/2413 4SM BR SCT010
     FM241400 VRB04KT P6SM SCT200=



000
FTUS43 KMPX 240520
TAFMSP
TAF
KMSP 240520Z 2406/2512 VRB04KT P6SM SCT060
      TEMPO 2409/2413 4SM BR SCT015
     FM241600 24005KT P6SM SCT150
     FM250000 11005KT P6SM SCT250=



000
FTUS43 KMPX 240233 AAA
TAFMSP
TAF AMD
KMSP 240233Z 2403/2506 21005KT P6SM SCT060 BKN120
     FM240600 20004KT 5SM BR BKN060
     FM241000 VRB03KT 4SM BR SCT015 BKN120
     FM241400 VRB03KT P6SM SCT120=



000
FTUS43 KMPX 240229 AAA
TAFSTC
TAF AMD
KSTC 240229Z 2403/2424 18007KT P6SM VCSH SCT040 BKN070
      TEMPO 2402/2404 4SM -TSRA BKN035CB
     FM240400 19004KT P6SM BKN100
     FM240600 VRB03KT 4SM BR SCT100
     FM241400 VRB04KT P6SM SCT200=



000
FTUS43 KMPX 240006 CCA
TAFRWF
TAF COR
KRWF 240006Z 2400/2424 19008KT P6SM VCTS SCT030CB BKN050
      TEMPO 2400/2403 1SM TSRA BR BKN025CB
     FM240300 20005KT P6SM SCT035 BKN200
     FM241500 16005KT P6SM SCT250=



000
FTUS43 KMPX 232339
TAFSTC
TAF
KSTC 232339Z 2400/2424 18007KT P6SM VCSH SCT040 BKN070
      TEMPO 2400/2402 4SM -TSRA BKN035CB
     FM240200 19004KT P6SM BKN100
     FM240600 VRB03KT 4SM BR SCT100
     FM241400 VRB04KT P6SM SCT200=



000
FTUS43 KMPX 232339
TAFMSP
TAF
KMSP 232339Z 2400/2506 21012KT P6SM VCSH SCT070 BKN120
      TEMPO 2401/2404 2SM TSRA OVC040CB
     FM240400 19005KT 6SM -SHRA BR SCT025 OVC035
     FM240600 20004KT 5SM BR BKN080
     FM241000 VRB03KT 4SM BR SCT015 BKN120
     FM241400 VRB03KT P6SM SCT120=



000
FTUS43 KMPX 232339
TAFAXN
TAF
KAXN 232339Z 2400/2424 23008KT P6SM BKN050
     FM240300 VRB03KT P6SM SCT050 SCT120
     FM241800 19006KT P6SM SCT150=



000
FTUS43 KMPX 232339
TAFRWF
TAF
KRWF 232339Z 2400/2424 19008KT P6SM VCTS SCT030CB BKN050
      TEMPO 2400/2403 3SM TSRA BR BKN035CB
     FM240300 20005KT P6SM SCT035 BKN200
     FM241500 16005KT P6SM SCT250=



000
FTUS43 KMPX 232339
TAFEAU
TAF
KEAU 232339Z 2400/2424 19012KT P6SM VCSH SCT025 OVC070
      TEMPO 2400/2404 2SM TSRA OVC025CB
     FM240500 19009KT 6SM -SHRA BR SCT015 OVC030
     FM240800 20005KT 4SM BR OVC005
      TEMPO 2409/2411 3/4SM BR OVC002
     FM241400 26004KT 6SM HZ BKN012=



000
FTUS43 KMPX 232055 AAB
TAFMSP
TAF AMD
KMSP 232055Z 2321/2424 21014G24KT P6SM VCSH SCT050 BKN090
      TEMPO 2322/2402 2SM TSRA OVC040CB
     FM240200 20009KT 6SM -SHRA BR SCT025 OVC035
     FM240600 20005KT 5SM BR BKN025
     FM241000 25004KT 4SM BR BKN015
     FM241400 27004KT P6SM SCT025=



000
FTUS43 KMPX 231955 AAA
TAFAXN
TAF AMD
KAXN 231955Z 2320/2418 23015G23KT P6SM VCSH SCT030 BKN045
     FM232300 23008KT P6SM SCT050 BKN200
     FM240600 26003KT P6SM SCT100=



000
FTUS43 KMPX 231952 AAA
TAFMSP
TAF AMD
KMSP 231952Z 2320/2424 20014G20KT P6SM VCSH SCT030 OVC045
      TEMPO 2321/2401 2SM TSRA OVC030CB
     FM240200 20009KT 6SM -SHRA BR SCT025 OVC035
     FM240600 20005KT 5SM BR BKN025
     FM241000 25004KT 4SM BR BKN015
     FM241400 27004KT P6SM SCT025=



    US Dept of Commerce
    National Oceanic and Atmospheric Administration
    National Weather Service
    1325 East West Highway
    Silver Spring, MD 20910
    Page Author: NWS Internet Services Team
Disclaimer
Information Quality
Credits
Glossary
Privacy Policy
Freedom of Information Act (FOIA)
About Us
Career Opportunities